Time;durP1;ratioP1;P1;durP2;ratioP2;P2;SDS_P1;SDS_P2;PMS_P1;PMS_P2;Temp;Humidity;BMP_temperature;BMP_pressure;BME280_temperature;BME280_humidity;BME280_pressure;Samples;Min_cycle;Max_cycle;Signal;HPM_P1;HPM_P2
2024/02/27 00:01:10;;;;;;;15.17;8.90;;;;;;;3.42;100.00;101543.16;5030230;28;20076;-67
2024/02/27 00:03:35;;;;;;;16.60;9.47;;;;;;;3.47;100.00;101540.25;5031584;28;20374;-65
2024/02/27 00:06:03;;;;;;;18.00;9.40;;;;;;;3.53;100.00;101550.41;5031413;28;20115;-66
2024/02/27 00:08:28;;;;;;;15.43;9.43;;;;;;;3.25;100.00;101515.28;5031678;28;20041;-65
2024/02/27 00:10:54;;;;;;;13.60;8.60;;;;;;;3.27;100.00;101517.81;5030123;28;20817;-65
2024/02/27 00:13:20;;;;;;;15.90;9.67;;;;;;;3.38;100.00;101547.78;5031238;28;20045;-66
2024/02/27 00:15:45;;;;;;;14.87;9.00;;;;;;;3.36;100.00;101541.78;5031175;28;20087;-64
2024/02/27 00:18:16;;;;;;;15.30;8.97;;;;;;;3.35;100.00;101532.19;5031084;28;20041;-65
2024/02/27 00:20:43;;;;;;;16.00;10.00;;;;;;;3.46;100.00;101542.03;5035249;28;20497;-67
2024/02/27 00:23:09;;;;;;;15.27;9.50;;;;;;;3.47;100.00;101541.13;5035196;28;20274;-65
2024/02/27 00:25:42;;;;;;;20.20;10.10;;;;;;;3.56;100.00;101566.00;5035266;28;20288;-67
2024/02/27 00:28:08;;;;;;;17.10;9.47;;;;;;;3.28;100.00;101528.25;5035027;28;20064;-67
2024/02/27 00:30:34;;;;;;;17.27;9.17;;;;;;;3.39;100.00;101549.47;5035217;28;20299;-65
2024/02/27 00:32:59;;;;;;;16.63;9.90;;;;;;;3.40;100.00;101545.91;5035590;28;20643;-67
2024/02/27 00:35:25;;;;;;;19.00;9.67;;;;;;;3.55;100.00;101567.78;5033709;28;20539;-65
2024/02/27 00:37:50;;;;;;;18.50;9.70;;;;;;;3.46;100.00;101564.88;5034942;28;20053;-68
2024/02/27 00:40:16;;;;;;;17.93;10.07;;;;;;;3.35;100.00;101547.97;5034959;28;20128;-66
2024/02/27 00:42:44;;;;;;;13.20;9.13;;;;;;;3.36;100.00;101554.09;5034811;28;20383;-67
2024/02/27 00:45:09;;;;;;;15.23;8.83;;;;;;;3.30;100.00;101555.34;5034666;28;20268;-66
2024/02/27 00:47:35;;;;;;;16.60;8.93;;;;;;;3.37;100.00;101571.59;5034488;28;20264;-67
2024/02/27 00:50:01;;;;;;;17.93;9.30;;;;;;;3.23;100.00;101548.78;5034809;28;20034;-66
2024/02/27 00:52:26;;;;;;;20.20;11.73;;;;;;;3.34;100.00;101566.50;5034361;28;20037;-66
2024/02/27 00:54:52;;;;;;;14.90;9.27;;;;;;;3.36;100.00;101562.84;5033577;28;20037;-65
2024/02/27 00:57:17;;;;;;;19.47;10.37;;;;;;;3.39;100.00;101573.19;5034668;28;20037;-67
2024/02/27 00:59:43;;;;;;;20.17;9.23;;;;;;;3.40;100.00;101561.69;5034435;28;20124;-66
2024/02/27 01:02:09;;;;;;;16.03;9.70;;;;;;;3.32;100.00;101549.97;5034317;28;20128;-65
2024/02/27 01:04:34;;;;;;;21.47;12.27;;;;;;;3.06;100.00;101512.13;5032983;28;20082;-66
2024/02/27 01:07:00;;;;;;;17.60;9.63;;;;;;;3.35;100.00;101563.78;5032974;28;20477;-65
2024/02/27 01:09:25;;;;;;;16.63;9.17;;;;;;;3.37;100.00;101572.44;5034555;28;20129;-66
2024/02/27 01:11:51;;;;;;;16.23;9.13;;;;;;;3.21;100.00;101534.00;5034774;28;20041;-65
2024/02/27 01:14:17;;;;;;;11.70;8.07;;;;;;;3.42;100.00;101557.19;5034536;28;20033;-67
2024/02/27 01:16:42;;;;;;;19.03;10.03;;;;;;;3.43;100.00;101558.03;5034107;28;20041;-66
2024/02/27 01:19:11;;;;;;;17.47;9.70;;;;;;;3.45;100.00;101557.91;5034147;28;20041;-67
2024/02/27 01:21:36;;;;;;;20.15;10.20;;;;;;;3.38;100.00;101537.25;5032860;28;20033;-68
2024/02/27 01:24:05;;;;;;;19.63;10.17;;;;;;;3.52;100.00;101581.16;5032506;28;20410;-66
2024/02/27 01:26:31;;;;;;;21.40;10.97;;;;;;;3.45;100.00;101557.91;5034058;28;20058;-67
2024/02/27 01:28:57;;;;;;;14.60;9.33;;;;;;;3.58;100.00;101562.31;5033767;28;20318;-67
2024/02/27 01:31:25;;;;;;;18.23;10.57;;;;;;;3.55;100.00;101559.06;5032736;28;20293;-67
2024/02/27 01:33:50;;;;;;;15.33;10.30;;;;;;;3.63;100.00;101580.47;5036516;28;20287;-65
2024/02/27 01:36:16;;;;;;;18.70;10.50;;;;;;;3.51;100.00;101574.22;5037021;28;20037;-66
2024/02/27 01:38:41;;;;;;;18.10;10.23;;;;;;;3.37;100.00;101561.91;5034496;28;20465;-67
2024/02/27 01:41:07;;;;;;;17.17;10.47;;;;;;;3.45;100.00;101584.25;5033593;28;20048;-67
2024/02/27 01:43:32;;;;;;;16.57;10.83;;;;;;;2.97;100.00;101520.59;5033606;28;20040;-66
2024/02/27 01:46:15;;;;;;;18.07;10.10;;;;;;;3.40;100.00;101582.75;5033326;28;20047;-65
2024/02/27 01:48:42;;;;;;;17.63;10.87;;;;;;;3.30;100.00;101576.41;5033440;28;20036;-67
2024/02/27 01:51:10;;;;;;;20.87;10.07;;;;;;;3.30;100.00;101562.38;5033409;28;20671;-66
2024/02/27 01:53:38;;;;;;;19.57;11.73;;;;;;;3.20;100.00;101543.69;5033211;28;20313;-65
2024/02/27 01:56:05;;;;;;;16.40;10.20;;;;;;;3.41;100.00;101579.19;5033309;28;20644;-65
2024/02/27 01:58:32;;;;;;;20.67;11.23;;;;;;;3.39;100.00;101591.59;5032459;28;20091;-65
2024/02/27 02:00:57;;;;;;;15.87;9.67;;;;;;;3.43;100.00;101593.09;5033459;28;20411;-66
2024/02/27 02:03:25;;;;;;;15.17;10.27;;;;;;;3.38;100.00;101568.84;5033992;28;20775;-67
2024/02/27 02:05:51;;;;;;;18.23;11.00;;;;;;;3.40;100.00;101572.22;5033360;28;20079;-65
2024/02/27 02:08:18;;;;;;;15.80;10.00;;;;;;;3.61;100.00;101603.44;5033038;28;20460;-67
2024/02/27 02:10:43;;;;;;;18.37;11.13;;;;;;;3.40;100.00;101572.22;5031885;28;20523;-66
2024/02/27 02:13:10;;;;;;;18.53;10.40;;;;;;;3.63;100.00;101612.94;5033049;28;20273;-67
2024/02/27 02:15:36;;;;;;;17.37;10.30;;;;;;;3.51;100.00;101584.75;5033366;28;20052;-66
2024/02/27 02:18:01;;;;;;;18.83;9.57;;;;;;;3.65;100.00;101607.56;5032862;28;20339;-67
2024/02/27 02:20:27;;;;;;;17.33;9.87;;;;;;;3.50;100.00;101590.09;5032848;28;20037;-64
2024/02/27 02:22:53;;;;;;;18.20;9.93;;;;;;;3.42;100.00;101591.41;5032779;28;20035;-67
2024/02/27 02:25:24;;;;;;;20.17;10.10;;;;;;;3.49;100.00;101612.97;5033293;28;20080;-65
2024/02/27 02:27:54;;;;;;;20.80;9.50;;;;;;;3.58;100.00;101608.91;5033459;28;20056;-65
2024/02/27 02:30:23;;;;;;;16.57;10.73;;;;;;;3.60;100.00;101617.53;5031893;28;20390;-66
2024/02/27 02:32:53;;;;;;;17.13;10.73;;;;;;;3.43;100.00;101582.56;5033520;28;20272;-67
2024/02/27 02:35:19;;;;;;;18.07;11.03;;;;;;;3.46;100.00;101596.47;5032862;28;20276;-67
2024/02/27 02:37:48;;;;;;;13.70;10.00;;;;;;;3.54;100.00;101610.88;5015155;28;20052;-66
2024/02/27 02:40:15;;;;;;;19.25;11.25;;;;;;;3.53;100.00;101589.91;5033013;28;20275;-66
2024/02/27 02:42:42;;;;;;;13.83;9.10;;;;;;;3.66;100.00;101603.97;5033563;28;20041;-67
2024/02/27 02:45:08;;;;;;;15.67;9.87;;;;;;;3.70;100.00;101600.19;5033604;28;20334;-68
2024/02/27 02:47:34;;;;;;;14.13;9.90;;;;;;;3.59;100.00;101586.88;5032923;28;20359;-67
2024/02/27 02:49:59;;;;;;;16.23;9.40;;;;;;;3.54;100.00;101578.44;5033192;28;20319;-69
2024/02/27 02:52:25;;;;;;;13.83;10.03;;;;;;;3.65;100.00;101589.97;5033136;28;20040;-66
2024/02/27 02:54:50;;;;;;;18.97;11.07;;;;;;;3.77;100.00;101596.25;5033142;28;20045;-67
2024/02/27 02:57:16;;;;;;;14.93;9.57;;;;;;;3.82;100.00;101599.44;5032618;28;20081;-65
2024/02/27 02:59:45;;;;;;;17.83;9.47;;;;;;;3.71;100.00;101594.00;5032653;28;20041;-69
2024/02/27 03:02:11;;;;;;;15.52;9.88;;;;;;;3.85;100.00;101601.88;5032628;28;20124;-64
2024/02/27 03:04:36;;;;;;;16.67;8.70;;;;;;;3.74;100.00;101567.44;5032329;28;20057;-69
2024/02/27 03:07:02;;;;;;;16.00;9.60;;;;;;;3.95;100.00;101588.94;5031386;28;20800;-67
2024/02/27 03:09:29;;;;;;;18.90;11.20;;;;;;;3.79;100.00;101575.06;5032782;28;20037;-66
2024/02/27 03:11:54;;;;;;;14.80;9.07;;;;;;;3.79;100.00;101585.63;5032185;28;20082;-67
2024/02/27 03:14:20;;;;;;;16.13;9.60;;;;;;;3.83;100.00;101597.66;5032314;28;20272;-68
2024/02/27 03:16:45;;;;;;;17.70;9.13;;;;;;;3.68;100.00;101596.81;5031401;28;20084;-66
2024/02/27 03:19:12;;;;;;;18.17;10.60;;;;;;;3.65;100.00;101597.03;5034804;28;20037;-67
2024/02/27 03:21:39;;;;;;;16.83;9.90;;;;;;;3.69;100.00;101598.50;5033738;28;20045;-66
2024/02/27 03:24:05;;;;;;;14.33;9.23;;;;;;;3.70;100.00;101611.59;5034892;28;20306;-69
2024/02/27 03:26:30;;;;;;;14.03;8.97;;;;;;;3.67;100.00;101610.94;5034777;28;20831;-68
2024/02/27 03:28:57;;;;;;;13.53;9.27;;;;;;;3.62;100.00;101602.50;5032088;28;20045;-68
2024/02/27 03:31:22;;;;;;;15.53;9.30;;;;;;;3.57;100.00;101594.03;5031918;28;20091;-68
2024/02/27 03:33:48;;;;;;;15.17;10.50;;;;;;;3.50;100.00;101592.75;5032271;28;20367;-68
2024/02/27 03:36:13;;;;;;;18.80;10.37;;;;;;;3.51;100.00;101600.53;5031510;28;20042;-68
2024/02/27 03:38:40;;;;;;;13.60;9.23;;;;;;;3.40;100.00;101577.50;5031161;28;20049;-67
2024/02/27 03:41:14;;;;;;;14.60;9.27;;;;;;;3.50;100.00;101592.75;5030859;28;20123;-66
2024/02/27 03:43:43;;;;;;;15.33;10.20;;;;;;;3.37;100.00;101575.06;5031460;28;20305;-67
2024/02/27 03:46:09;;;;;;;14.20;8.90;;;;;;;3.56;100.00;101602.88;5031672;28;20275;-68
2024/02/27 03:48:35;;;;;;;19.83;9.47;;;;;;;3.15;100.00;101535.22;5031842;28;20039;-67
2024/02/27 03:51:01;;;;;;;15.30;9.83;;;;;;;3.43;100.00;101579.94;5031927;28;20770;-66
2024/02/27 03:53:31;;;;;;;17.40;9.87;;;;;;;3.48;100.00;101589.34;5031045;28;20276;-66
2024/02/27 03:55:57;;;;;;;13.37;10.10;;;;;;;3.62;100.00;101610.38;5031616;28;20272;-68
2024/02/27 03:58:28;;;;;;;13.63;9.70;;;;;;;3.46;100.00;101580.69;5031362;28;20288;-67
2024/02/27 04:00:54;;;;;;;14.73;9.83;;;;;;;3.62;100.00;101605.13;5031826;28;20382;-65
2024/02/27 04:03:19;;;;;;;14.10;10.03;;;;;;;3.45;100.00;101581.63;5031592;28;20272;-67
2024/02/27 04:05:45;;;;;;;15.50;9.20;;;;;;;3.65;100.00;101608.41;5030229;28;20477;-68
2024/02/27 04:08:10;;;;;;;15.90;10.87;;;;;;;3.50;100.00;101590.94;5029031;28;20040;-66
2024/02/27 04:10:36;;;;;;;15.63;10.27;;;;;;;3.59;100.00;101607.94;5031206;28;20041;-67
2024/02/27 04:13:02;;;;;;;15.93;9.80;;;;;;;3.62;100.00;101626.19;5031264;28;20029;-67
2024/02/27 04:15:28;;;;;;;14.33;10.30;;;;;;;3.36;100.00;101581.28;5031573;28;20037;-67
2024/02/27 04:17:55;;;;;;;15.83;9.20;;;;;;;3.41;100.00;101581.81;5030193;28;20306;-66
2024/02/27 04:20:21;;;;;;;14.50;10.30;;;;;;;3.67;100.00;101624.94;5030005;28;20529;-71
2024/02/27 04:22:47;;;;;;;15.27;9.73;;;;;;;3.65;100.00;101624.22;5031098;28;20290;-68
2024/02/27 04:25:16;;;;;;;13.30;10.23;;;;;;;3.57;100.00;101605.41;5031015;28;20264;-68
2024/02/27 04:27:43;;;;;;;17.63;10.47;;;;;;;3.49;100.00;101604.22;5031454;28;20033;-67
2024/02/27 04:30:09;;;;;;;16.70;10.10;;;;;;;3.62;100.00;101629.66;5030095;28;20276;-69
2024/02/27 04:32:35;;;;;;;17.17;10.33;;;;;;;3.45;100.00;101600.91;5031506;28;20425;-68
2024/02/27 04:35:01;;;;;;;15.37;11.00;;;;;;;3.53;100.00;101613.63;5031502;28;20289;-74
2024/02/27 04:37:27;;;;;;;17.07;10.80;;;;;;;3.55;100.00;101611.72;5030158;28;20504;-70
2024/02/27 04:39:54;;;;;;;18.63;11.30;;;;;;;3.69;100.00;101645.94;5030594;28;20292;-71
2024/02/27 04:42:20;;;;;;;22.10;11.50;;;;;;;3.63;100.00;101644.53;5031939;28;20493;-71
2024/02/27 04:44:46;;;;;;;18.13;11.07;;;;;;;3.41;100.00;101596.78;5042168;28;20318;-68
2024/02/27 04:47:11;;;;;;;19.57;11.43;;;;;;;3.60;100.00;101641.25;5040241;28;20038;-73
2024/02/27 04:49:37;;;;;;;20.27;12.37;;;;;;;3.64;100.00;101648.00;5010607;28;20041;-69
2024/02/27 04:52:03;;;;;;;20.17;12.17;;;;;;;3.68;100.00;101658.25;5031797;28;20072;-71
2024/02/27 04:54:28;;;;;;;19.07;12.33;;;;;;;3.67;100.00;101659.19;5030850;28;20105;-74
2024/02/27 04:56:55;;;;;;;19.03;11.93;;;;;;;2.87;100.00;101524.72;5023110;28;20747;-71
2024/02/27 04:59:20;;;;;;;16.63;10.67;;;;;;;3.69;100.00;101665.22;5031077;28;20477;-68
2024/02/27 05:01:49;;;;;;;15.47;10.70;;;;;;;3.37;100.00;101598.75;5031191;28;20268;-69
2024/02/27 05:04:16;;;;;;;13.43;9.60;;;;;;;3.71;100.00;101670.38;5032023;28;20103;-66
2024/02/27 05:06:42;;;;;;;16.97;9.90;;;;;;;3.68;100.00;101655.63;5033199;28;20791;-68
2024/02/27 05:09:08;;;;;;;15.53;8.00;;;;;;;3.64;100.00;101669.09;5034644;28;20296;-68
2024/02/27 05:11:34;;;;;;;13.77;7.27;;;;;;;3.44;100.00;101636.06;5034592;28;20033;-70
2024/02/27 05:14:00;;;;;;;9.10;6.67;;;;;;;3.50;100.00;101653.31;5034440;28;20329;-67
2024/02/27 05:16:26;;;;;;;12.70;7.93;;;;;;;3.17;100.00;101607.03;5034459;28;20037;-67
2024/02/27 05:18:51;;;;;;;13.30;7.10;;;;;;;3.26;100.00;101638.09;5034067;28;20045;-66
2024/02/27 05:21:18;;;;;;;11.87;7.93;;;;;;;3.59;100.00;101687.81;5033211;28;20366;-68
2024/02/27 05:23:45;;;;;;;11.70;6.47;;;;;;;3.55;100.00;101691.59;5034569;28;20033;-66
2024/02/27 05:26:11;;;;;;;15.03;6.77;;;;;;;3.50;100.00;101685.75;5035245;28;20338;-64
2024/02/27 05:28:37;;;;;;;10.97;6.87;;;;;;;3.58;100.00;101701.94;5043169;28;20285;-67
2024/02/27 05:31:26;;;;;;;13.67;6.73;;;;;;;3.60;100.00;101697.41;5033290;28;20272;-68
2024/02/27 05:33:54;;;;;;;11.13;5.73;;;;;;;3.51;100.00;101678.72;5034375;28;20319;-72
2024/02/27 05:36:20;;;;;;;8.53;5.10;;;;;;;3.49;100.00;101685.84;5033331;28;20280;-71
2024/02/27 05:38:46;;;;;;;9.13;5.37;;;;;;;3.58;100.00;101706.34;5034730;28;20327;-68
2024/02/27 05:41:12;;;;;;;7.53;4.60;;;;;;;3.47;100.00;101699.13;5033382;28;20311;-69
2024/02/27 05:43:38;;;;;;;4.93;3.97;;;;;;;3.56;100.00;101718.78;5032461;28;20102;-69
2024/02/27 05:46:05;;;;;;;5.40;3.93;;;;;;;3.50;100.00;101727.06;5033511;28;20147;-67
2024/02/27 05:48:33;;;;;;;6.87;4.60;;;;;;;3.44;100.00;101704.53;5033538;28;20264;-66
2024/02/27 05:50:59;;;;;;;6.95;4.72;;;;;;;3.33;100.00;101705.22;5031363;28;20288;-72
2024/02/27 05:53:25;;;;;;;7.93;4.77;;;;;;;3.26;100.00;101696.00;5033425;28;20133;-70
2024/02/27 05:55:51;;;;;;;7.50;6.27;;;;;;;3.30;100.00;101710.66;5032489;28;20401;-70
2024/02/27 05:58:17;;;;;;;8.03;5.60;;;;;;;3.36;100.00;101725.25;5033639;28;20116;-68
2024/02/27 06:00:42;;;;;;;8.20;6.07;;;;;;;3.24;100.00;101726.84;5033175;28;20374;-67
2024/02/27 06:03:08;;;;;;;9.13;6.67;;;;;;;3.16;100.00;101723.78;5027788;28;20587;-67
2024/02/27 06:05:35;;;;;;;9.23;6.33;;;;;;;3.04;100.00;101706.13;5009072;28;20080;-65
2024/02/27 06:08:00;;;;;;;7.17;5.27;;;;;;;3.03;100.00;101725.47;5028292;28;20264;-69
2024/02/27 06:10:27;;;;;;;7.23;5.07;;;;;;;2.93;100.00;101713.81;5033312;28;20275;-69
2024/02/27 06:12:52;;;;;;;10.07;5.80;;;;;;;3.07;100.00;101737.50;5017353;28;20040;-69
2024/02/27 06:15:18;;;;;;;8.67;6.63;;;;;;;2.97;100.00;101736.38;5033044;28;20276;-68
2024/02/27 06:17:44;;;;;;;6.87;5.43;;;;;;;3.09;100.00;101746.16;5032166;28;20041;-68
2024/02/27 06:22:10;;;;;;;8.53;6.60;;;;;;;2.87;100.00;101715.00;5032711;28;20038;-68
2024/02/27 06:22:57;;;;;;;7.67;6.20;;;;;;;3.05;100.00;101742.00;5031919;28;20033;-65
2024/02/27 06:25:28;;;;;;;11.02;8.25;;;;;;;3.06;100.00;101748.97;5028760;28;20276;-65
2024/02/27 06:27:53;;;;;;;9.23;6.47;;;;;;;2.99;100.00;101729.22;5014820;28;20129;-66
2024/02/27 06:30:19;;;;;;;7.73;5.20;;;;;;;2.95;100.00;101735.63;5012546;28;20411;-67
2024/02/27 06:32:44;;;;;;;10.97;6.47;;;;;;;2.92;100.00;101718.22;5011305;28;20076;-70
2024/02/27 06:35:10;;;;;;;8.10;6.20;;;;;;;3.11;100.00;101750.38;5012955;28;20192;-68
2024/02/27 06:37:36;;;;;;;9.20;5.60;;;;;;;3.11;100.00;101754.81;5012433;28;20076;-68
2024/02/27 06:40:04;;;;;;;10.03;5.53;;;;;;;3.02;100.00;101734.31;5012425;28;20127;-68
2024/02/27 06:42:37;;;;;;;;;;;;;;;3.23;100.00;101764.63;5012641;28;20413;-66
2024/02/27 06:45:06;;;;;;;10.07;6.50;;;;;;;3.19;100.00;101755.22;5011715;28;19917;-65
2024/02/27 06:47:32;;;;;;;10.27;6.70;;;;;;;3.12;100.00;101748.59;5012151;28;20277;-67
2024/02/27 06:49:58;;;;;;;9.17;6.23;;;;;;;3.13;100.00;101747.66;5012036;28;20356;-70
2024/02/27 06:52:25;;;;;;;12.67;8.23;;;;;;;3.21;100.00;101755.97;5012117;28;20368;-66
2024/02/27 06:54:53;;;;;;;11.23;7.50;;;;;;;3.10;100.00;101724.16;5012065;28;20296;-66
2024/02/27 06:57:19;;;;;;;12.38;6.38;;;;;;;3.12;100.00;101743.34;5028394;28;20034;-68
2024/02/27 06:59:45;;;;;;;9.33;6.83;;;;;;;3.16;100.00;101759.78;5030812;28;20132;-65
2024/02/27 07:02:11;;;;;;;11.57;6.83;;;;;;;2.79;100.00;101715.44;5032088;28;20033;-67
2024/02/27 07:04:37;;;;;;;10.83;7.17;;;;;;;2.99;100.00;101745.88;5032206;28;20072;-68
2024/02/27 07:07:03;;;;;;;12.40;8.07;;;;;;;3.19;100.00;101772.81;5031783;28;20287;-65
2024/02/27 07:09:30;;;;;;;9.27;7.03;;;;;;;3.15;100.00;101772.13;5031772;28;20356;-68
2024/02/27 07:11:56;;;;;;;11.47;7.37;;;;;;;3.03;100.00;101754.41;5030643;28;20264;-67
2024/02/27 07:14:22;;;;;;;11.47;8.17;;;;;;;2.85;100.00;101742.31;5031664;28;20267;-68
2024/02/27 07:16:47;;;;;;;11.50;8.13;;;;;;;3.10;100.00;101782.06;5032869;28;20275;-67
2024/02/27 07:19:15;;;;;;;13.37;8.30;;;;;;;3.16;100.00;101789.59;5030835;28;20051;-70
2024/02/27 07:21:41;;;;;;;13.03;7.73;;;;;;;3.15;100.00;101780.00;5032030;28;20037;-70
2024/02/27 07:24:06;;;;;;;10.73;7.87;;;;;;;3.21;100.00;101790.19;5033170;28;20274;-71
2024/02/27 07:26:34;;;;;;;10.50;8.23;;;;;;;3.15;100.00;101792.31;5032698;28;20072;-70
2024/02/27 07:28:59;;;;;;;16.53;9.57;;;;;;;3.24;100.00;101799.69;5031135;28;20045;-69
2024/02/27 07:31:25;;;;;;;16.23;8.80;;;;;;;2.40;100.00;101658.13;5032394;28;20272;-69
2024/02/27 07:33:51;;;;;;;15.23;8.63;;;;;;;3.18;100.00;101798.28;5031433;28;20037;-67
2024/02/27 07:36:16;;;;;;;13.03;7.77;;;;;;;3.08;100.00;101799.75;5031967;28;20049;-67
2024/02/27 07:38:42;;;;;;;9.60;7.47;;;;;;;3.11;100.00;101807.44;5031296;28;20041;-67
2024/02/27 07:41:10;;;;;;;13.97;6.80;;;;;;;3.14;100.00;101807.25;5030589;28;20048;-66
2024/02/27 07:43:35;;;;;;;10.67;6.63;;;;;;;3.12;100.00;101803.88;5029924;28;20059;-66
2024/02/27 07:46:07;;;;;;;8.97;6.67;;;;;;;3.02;100.00;101786.94;5030586;28;20353;-67
2024/02/27 07:48:32;;;;;;;11.20;7.27;;;;;;;3.03;100.00;101797.38;5031584;28;20041;-66
2024/02/27 07:50:58;;;;;;;9.13;6.30;;;;;;;2.97;100.00;101794.25;5032032;28;20290;-68
2024/02/27 07:53:23;;;;;;;9.87;6.97;;;;;;;2.88;100.00;101792.13;5032773;28;20049;-66
2024/02/27 07:55:51;;;;;;;9.67;6.40;;;;;;;2.83;100.00;101787.13;5031899;28;20033;-65
2024/02/27 07:58:17;;;;;;;8.27;6.97;;;;;;;2.75;100.00;101773.59;5031188;28;20150;-70
2024/02/27 08:00:45;;;;;;;12.23;7.40;;;;;;;2.79;100.00;101770.69;5031607;28;20073;-65
2024/02/27 08:03:14;;;;;;;8.80;6.72;;;;;;;2.94;100.00;101804.97;5031355;28;20452;-65
2024/02/27 08:05:40;;;;;;;9.10;6.30;;;;;;;2.97;100.00;101815.31;5031308;28;20099;-68
2024/02/27 08:08:06;;;;;;;9.30;5.37;;;;;;;3.01;100.00;101808.94;5016454;28;20664;-67
2024/02/27 08:10:31;;;;;;;7.43;6.20;;;;;;;2.82;100.00;101784.59;5031397;28;20033;-65
2024/02/27 08:13:00;;;;;;;9.00;5.53;;;;;;;2.98;100.00;101809.09;5025859;28;20406;-65
2024/02/27 08:15:25;;;;;;;8.10;5.65;;;;;;;2.94;100.00;101792.66;5011358;28;20108;-65
2024/02/27 08:17:51;;;;;;;7.80;6.03;;;;;;;3.07;100.00;101821.72;5011447;28;20128;-66
2024/02/27 08:20:17;;;;;;;7.20;5.03;;;;;;;3.04;100.00;101808.75;5011423;28;20030;-68
2024/02/27 08:22:42;;;;;;;10.03;5.10;;;;;;;3.15;100.00;101814.22;5011801;28;20116;-66
2024/02/27 08:25:08;;;;;;;6.93;5.50;;;;;;;2.91;100.00;101778.81;5011572;28;20080;-66
2024/02/27 08:27:37;;;;;;;6.77;5.20;;;;;;;3.10;100.00;101818.91;5011640;28;20058;-66
2024/02/27 08:30:04;;;;;;;7.30;5.05;;;;;;;3.18;100.00;101836.88;5013431;28;20284;-66
2024/02/27 08:32:31;;;;;;;6.27;5.30;;;;;;;3.27;100.00;101839.84;5012755;28;20069;-68
2024/02/27 08:34:57;;;;;;;5.23;4.67;;;;;;;3.19;100.00;101823.66;5012574;28;20273;-68
2024/02/27 08:37:25;;;;;;;6.97;4.90;;;;;;;3.31;100.00;101849.25;5044838;28;20277;-68
2024/02/27 08:39:50;;;;;;;7.57;5.80;;;;;;;3.29;100.00;101845.88;5013983;28;20042;-67
2024/02/27 08:42:16;;;;;;;5.50;5.00;;;;;;;3.30;100.00;101852.84;5017219;28;20268;-66
2024/02/27 08:44:41;;;;;;;6.10;4.43;;;;;;;3.27;100.00;101853.03;5048745;28;20041;-68
2024/02/27 08:47:07;;;;;;;6.90;5.30;;;;;;;3.07;100.00;101832.25;5014941;28;20034;-67
2024/02/27 08:49:33;;;;;;;5.63;4.83;;;;;;;3.16;100.00;101852.78;5015154;28;20046;-67
2024/02/27 08:51:59;;;;;;;7.17;5.50;;;;;;;3.13;100.00;101857.38;5013590;28;20069;-66
2024/02/27 08:54:24;;;;;;;8.77;5.97;;;;;;;2.96;100.00;101835.50;5014733;28;20088;-66
2024/02/27 08:56:51;;;;;;;6.00;5.40;;;;;;;3.20;100.00;101875.38;5031958;28;20129;-69
2024/02/27 08:59:18;;;;;;;5.57;4.50;;;;;;;3.13;100.00;101871.38;5016210;28;20042;-67
2024/02/27 09:01:46;;;;;;;5.33;4.20;;;;;;;3.14;100.00;101875.72;5014872;28;20327;-69
2024/02/27 09:04:11;;;;;;;5.43;4.60;;;;;;;3.00;100.00;101851.97;5016737;28;20336;-70
2024/02/27 09:06:41;;;;;;;5.00;4.50;;;;;;;3.06;100.00;101851.63;5014898;28;20486;-69
2024/02/27 09:09:08;;;;;;;5.77;4.93;;;;;;;3.04;100.00;101849.06;5014724;28;20050;-67
2024/02/27 09:11:34;;;;;;;4.20;3.80;;;;;;;2.96;100.00;101850.47;5014716;28;20273;-67
2024/02/27 09:13:59;;;;;;;4.20;3.80;;;;;;;2.91;100.00;101847.25;5014635;28;20284;-68
2024/02/27 09:16:25;;;;;;;4.43;4.03;;;;;;;3.05;100.00;101870.97;5014398;28;20038;-67
2024/02/27 09:18:50;;;;;;;3.20;2.97;;;;;;;2.93;100.00;101858.53;5013025;28;20040;-68
2024/02/27 09:21:16;;;;;;;4.30;3.30;;;;;;;2.62;100.00;101818.16;5014320;28;20061;-67
2024/02/27 09:23:42;;;;;;;3.17;2.90;;;;;;;2.74;100.00;101849.03;5014230;28;20129;-70
2024/02/27 09:26:08;;;;;;;3.20;2.80;;;;;;;2.91;100.00;101869.13;5012764;28;20510;-67
2024/02/27 09:28:33;;;;;;;3.20;2.90;;;;;;;3.02;100.00;101874.63;4996578;28;20409;-67
2024/02/27 09:31:02;;;;;;;4.43;3.33;;;;;;;3.00;100.00;101865.97;5014002;28;20382;-70
2024/02/27 09:33:28;;;;;;;;;;;;;;;3.16;100.00;101871.19;5014406;28;20034;-65
2024/02/27 09:35:53;;;;;;;3.37;3.07;;;;;;;3.27;100.00;101870.59;5029408;28;19970;-68
2024/02/27 09:38:19;;;;;;;4.30;2.80;;;;;;;3.27;100.00;101865.34;5012616;28;20037;-68
2024/02/27 09:40:45;;;;;;;3.23;2.87;;;;;;;3.36;100.00;101881.44;5013447;28;20034;-71
2024/02/27 09:43:19;;;;;;;3.23;2.93;;;;;;;3.29;100.00;101874.84;5014368;28;20489;-72
2024/02/27 09:45:44;;;;;;;2.60;2.40;;;;;;;3.17;100.00;101861.53;5013820;28;20030;-66
2024/02/27 09:48:12;;;;;;;2.30;2.10;;;;;;;3.01;100.00;101866.81;5045760;28;20277;-65
2024/02/27 09:50:40;;;;;;;5.27;2.80;;;;;;;3.02;100.00;101882.53;5044486;28;20413;-69
2024/02/27 09:53:08;;;;;;;3.10;2.80;;;;;;;3.06;100.00;101883.19;5014005;28;20269;-66
2024/02/27 09:55:33;;;;;;;3.43;3.13;;;;;;;3.07;100.00;101869.09;5012373;28;20469;-65
2024/02/27 09:58:01;;;;;;;2.77;2.50;;;;;;;3.22;100.00;101889.31;5013366;28;20393;-66
2024/02/27 10:00:27;;;;;;;3.40;3.10;;;;;;;3.17;100.00;101870.25;5013576;28;20034;-66
2024/02/27 10:02:53;;;;;;;4.67;3.13;;;;;;;3.32;100.00;101885.19;5013945;28;20135;-64
2024/02/27 10:05:21;;;;;;;3.80;3.17;;;;;;;3.28;100.00;101881.03;5014352;28;20052;-67
2024/02/27 10:07:57;;;;;;;3.30;3.00;;;;;;;3.31;100.00;101867.69;5013321;28;20276;-69
2024/02/27 10:10:23;;;;;;;3.77;3.33;;;;;;;3.36;100.00;101865.66;5012268;28;20380;-68
2024/02/27 10:12:49;;;;;;;4.87;3.30;;;;;;;3.48;100.00;101873.78;5012723;28;20273;-68
2024/02/27 10:15:15;;;;;;;3.63;3.10;;;;;;;3.65;100.00;101894.69;5012845;28;20261;-68
2024/02/27 10:17:43;;;;;;;3.20;2.70;;;;;;;3.66;100.00;101899.03;5012364;28;20045;-68
2024/02/27 10:20:12;;;;;;;3.38;2.40;;;;;;;3.48;100.00;101893.06;5011595;28;20038;-69
2024/02/27 10:22:41;;;;;;;4.25;3.53;;;;;;;3.30;100.00;101866.00;5012324;28;20451;-68
2024/02/27 10:25:14;;;;;;;3.20;3.00;;;;;;;3.53;100.00;101903.31;5012680;28;20038;-70
2024/02/27 10:27:44;;;;;;;3.80;3.50;;;;;;;3.56;100.00;101892.59;5019026;28;20324;-68
2024/02/27 10:30:14;;;;;;;3.43;3.13;;;;;;;3.51;100.00;101878.88;5043057;28;20872;-68
2024/02/27 10:32:41;;;;;;;4.30;3.57;;;;;;;3.74;100.00;101902.03;5027510;28;20272;-65
2024/02/27 10:35:08;;;;;;;4.77;3.43;;;;;;;3.81;100.00;101900.75;5030672;28;20286;-65
2024/02/27 10:37:35;;;;;;;4.03;3.63;;;;;;;3.88;100.00;101904.72;5031224;28;20276;-67
2024/02/27 10:40:02;;;;;;;3.00;2.70;;;;;;;3.76;100.00;101902.84;5002429;28;20280;-69
2024/02/27 10:42:30;;;;;;;2.72;2.50;;;;;;;3.60;100.00;101891.50;5024565;28;20312;-66
2024/02/27 10:44:56;;;;;;;2.63;2.43;;;;;;;3.73;100.00;101905.63;5028506;28;20075;-68
2024/02/27 10:47:25;;;;;;;2.93;2.63;;;;;;;3.72;100.00;101903.94;5031173;28;20416;-65
2024/02/27 10:49:52;;;;;;;3.05;2.65;;;;;;;3.83;100.00;101912.06;5027614;28;20287;-67
2024/02/27 10:52:20;;;;;;;2.67;2.47;;;;;;;3.84;100.00;101907.63;5028048;28;20064;-67
2024/02/27 10:54:49;;;;;;;3.58;2.55;;;;;;;3.89;100.00;101909.06;5028443;28;20275;-67
2024/02/27 10:57:16;;;;;;;2.65;2.45;;;;;;;3.94;100.00;101906.97;5030836;28;20037;-68
2024/02/27 10:59:44;;;;;;;4.57;3.67;;;;;;;3.84;100.00;101884.78;5055934;28;20378;-67
2024/02/27 11:02:19;;;;;;;2.57;2.17;;;;;;;3.92;100.00;101895.69;5028892;28;20272;-66
2024/02/27 11:04:46;;;;;;;3.30;2.83;;;;;;;3.73;100.00;101889.81;5030527;28;20288;-68
2024/02/27 11:07:15;;;;;;;2.40;2.20;;;;;;;3.64;100.00;101890.38;5028584;28;20326;-69
2024/02/27 11:09:43;;;;;;;2.17;1.97;;;;;;;3.69;100.00;101901.47;5028925;28;20272;-67
2024/02/27 11:12:14;;;;;;;4.07;2.53;;;;;;;3.75;100.00;101903.75;5030261;28;20336;-66
2024/02/27 11:14:49;;;;;;;2.90;2.60;;;;;;;3.69;100.00;101894.41;5031822;28;20057;-67
2024/02/27 11:17:21;;;;;;;4.67;2.20;;;;;;;3.81;100.00;101913.94;5029168;28;20366;-68